PWSweather.com
Personal Weather Stations
Station Observations
WILS01
Leuven, WilseleBE 3012

LeuvenWilseleBE 3012

Lat: 50.89518, Lon: 4.69741

Elevation: 120

Station Type: DAVIS VP2

Latest ConditionsUpdated 7:56:34 PM GMT+01:01 Saturday, Jul 4, 2015
Currently Today's Max Today's Min Today's Average
Temperature 80.1°F26.7°C 96.1°F35.6°C 76.5°F24.7°C 85.3°F29.6°C
Dew Point 64.9°F18.3°C 71.4°F21.9°C 64.6°F18.1°C 69.1°F20.6°C
Winds 0.9 mph WNW1.4 kmh WNW 4.0 mph SW6.4 kmh SW - 1.5 mph 2.4 kmh
Wind Gusts 1.3 mph2.1 kmh 4.0 mph6.4 kmh - -
Humidity 60% 79% 41% 60%
Pressure 30.10 in1019.3 mb 30.10 in1019.3 mb 30.00 in1015.9 mb -
Hour Temp Dew Point Humidity Winds Wind Gusts Pressure Precip Precip Rate Daily Precip Total
07:56 PM 80.1°F26.7°C 64.9°F18.3°C 60% 0.9 mph WNW1.4 kmh WNW 1.3 mph2.1 kmh 30.10 in1019.3 mb - 0.00 in0.0 mm 0.00 in0.0 mm
07:46 PM 80.4°F26.9°C 65.3°F18.5°C 60% Calm Calm 0.4 mph0.6 kmh 30.10 in1019.3 mb - 0.00 in0.0 mm 0.00 in0.0 mm
07:35 PM 80.8°F27.1°C 65.1°F18.4°C 59% 0.9 mph 1.4 kmh 0.7 mph1.1 kmh 30.10 in1019.3 mb - 0.00 in0.0 mm 0.00 in0.0 mm
07:24 PM 81.1°F27.3°C 64.9°F18.3°C 58% 0.9 mph NW1.4 kmh NW 1.3 mph2.1 kmh 30.09 in1019.0 mb - 0.00 in0.0 mm 0.00 in0.0 mm
07:14 PM 81.3°F27.4°C 64.6°F18.1°C 57% 0.9 mph W1.4 kmh W 0.9 mph1.4 kmh 30.09 in1019.0 mb - 0.00 in0.0 mm 0.00 in0.0 mm
07:04 PM 81.9°F27.7°C 64.6°F18.1°C 56% 2.0 mph WNW3.2 kmh WNW 1.1 mph1.8 kmh 30.09 in1019.0 mb - 0.00 in0.0 mm 0.00 in0.0 mm
06:53 PM 82.6°F28.1°C 64.8°F18.2°C 55% 0.9 mph WNW1.4 kmh WNW 1.6 mph2.6 kmh 30.09 in1019.0 mb - 0.00 in0.0 mm 0.00 in0.0 mm
06:43 PM 83.5°F28.6°C 65.1°F18.4°C 54% 0.9 mph W1.4 kmh W 1.6 mph2.6 kmh 30.09 in1019.0 mb - 0.00 in0.0 mm 0.00 in0.0 mm
06:32 PM 84.6°F29.2°C 64.9°F18.3°C 52% 0.9 mph S1.4 kmh S 1.1 mph1.8 kmh 30.09 in1019.0 mb - 0.00 in0.0 mm 0.00 in0.0 mm
06:22 PM 85.5°F29.7°C 65.5°F18.6°C 51% 0.9 mph WSW1.4 kmh WSW 0.4 mph0.6 kmh 30.09 in1019.0 mb - 0.00 in0.0 mm 0.00 in0.0 mm
06:12 PM 88.0°F31.1°C 67.3°F19.6°C 50% 0.9 mph WNW1.4 kmh WNW 1.6 mph2.6 kmh 30.09 in1019.0 mb - 0.00 in0.0 mm 0.00 in0.0 mm
06:02 PM 89.1°F31.7°C 68.0°F20.0°C 50% 0.9 mph NE1.4 kmh NE 0.9 mph1.4 kmh 30.08 in1018.6 mb - 0.00 in0.0 mm 0.00 in0.0 mm
05:51 PM 89.2°F31.8°C 69.3°F20.7°C 52% 0.2 mph SW0.3 kmh SW 1.1 mph1.8 kmh 30.08 in1018.6 mb - 0.00 in0.0 mm 0.00 in0.0 mm
05:41 PM 88.9°F31.6°C 69.4°F20.8°C 52% 0.9 mph SSW1.4 kmh SSW 0.2 mph0.3 kmh 30.08 in1018.6 mb - 0.00 in0.0 mm 0.00 in0.0 mm
05:30 PM 88.9°F31.6°C 68.9°F20.5°C 52% 2.0 mph SW3.2 kmh SW 1.1 mph1.8 kmh 30.08 in1018.6 mb - 0.00 in0.0 mm 0.00 in0.0 mm
05:20 PM 89.2°F31.8°C 68.7°F20.4°C 51% 2.0 mph SW3.2 kmh SW 2.2 mph3.5 kmh 30.08 in1018.6 mb - 0.00 in0.0 mm 0.00 in0.0 mm
05:10 PM 89.4°F31.9°C 68.4°F20.2°C 50% 0.9 mph SSW1.4 kmh SSW 1.6 mph2.6 kmh 30.08 in1018.6 mb - 0.00 in0.0 mm 0.00 in0.0 mm
04:59 PM 89.8°F32.1°C 68.0°F20.0°C 49% 0.9 mph SW1.4 kmh SW 2.0 mph3.2 kmh 30.08 in1018.6 mb - 0.00 in0.0 mm 0.00 in0.0 mm
04:49 PM 89.8°F32.1°C 66.4°F19.1°C 46% 2.0 mph SW3.2 kmh SW 2.0 mph3.2 kmh 30.09 in1019.0 mb - 0.00 in0.0 mm 0.00 in0.0 mm
04:38 PM 90.0°F32.2°C 67.1°F19.5°C 47% 2.5 mph SW4.0 kmh SW 2.7 mph4.3 kmh 30.09 in1019.0 mb - 0.00 in0.0 mm 0.00 in0.0 mm
04:28 PM 90.1°F32.3°C 67.8°F19.9°C 48% 2.9 mph SW4.7 kmh SW 2.9 mph4.7 kmh 30.09 in1019.0 mb - 0.00 in0.0 mm 0.00 in0.0 mm
04:18 PM 90.5°F32.5°C 68.7°F20.4°C 49% 2.0 mph SSW3.2 kmh SSW 2.5 mph4.0 kmh 30.09 in1019.0 mb - 0.00 in0.0 mm 0.00 in0.0 mm
04:07 PM 90.9°F32.7°C 69.3°F20.7°C 49% 2.9 mph SW4.7 kmh SW 2.7 mph4.3 kmh 30.09 in1019.0 mb - 0.00 in0.0 mm 0.00 in0.0 mm
03:57 PM 91.6°F33.1°C 69.8°F21.0°C 49% 1.1 mph SW1.8 kmh SW 2.5 mph4.0 kmh 30.08 in1018.6 mb - 0.00 in0.0 mm 0.00 in0.0 mm
03:46 PM 91.6°F33.1°C 69.3°F20.7°C 48% 2.5 mph SSW4.0 kmh SSW 0.7 mph1.1 kmh 30.08 in1018.6 mb - 0.00 in0.0 mm 0.00 in0.0 mm
03:36 PM 92.1°F33.4°C 68.5°F20.3°C 46% 2.9 mph SW4.7 kmh SW 3.1 mph5.0 kmh 30.08 in1018.6 mb - 0.00 in0.0 mm 0.00 in0.0 mm
03:26 PM 92.8°F33.8°C 67.8°F19.9°C 44% 2.9 mph SW4.7 kmh SW 2.7 mph4.3 kmh 30.08 in1018.6 mb - 0.00 in0.0 mm 0.00 in0.0 mm
03:16 PM 93.6°F34.2°C 68.4°F20.2°C 44% 2.9 mph SW4.7 kmh SW 1.8 mph2.9 kmh 30.08 in1018.6 mb - 0.00 in0.0 mm 0.00 in0.0 mm
03:05 PM 94.5°F34.7°C 69.1°F20.6°C 43% 2.5 mph SW4.0 kmh SW 3.1 mph5.0 kmh 30.08 in1018.6 mb - 0.00 in0.0 mm 0.00 in0.0 mm
02:55 PM 95.2°F35.1°C 69.3°F20.7°C 43% 2.0 mph SW3.2 kmh SW 2.9 mph4.7 kmh 30.08 in1018.6 mb - 0.00 in0.0 mm 0.00 in0.0 mm
02:44 PM 96.1°F35.6°C 68.5°F20.3°C 41% 2.0 mph SSW3.2 kmh SSW 1.1 mph1.8 kmh 30.07 in1018.3 mb - 0.00 in0.0 mm 0.00 in0.0 mm
02:34 PM 96.1°F35.6°C 68.7°F20.4°C 41% 1.6 mph WSW2.6 kmh WSW 1.3 mph2.1 kmh 30.07 in1018.3 mb - 0.00 in0.0 mm 0.00 in0.0 mm
02:23 PM 95.4°F35.2°C 68.7°F20.4°C 42% 2.0 mph SW3.2 kmh SW 0.7 mph1.1 kmh 30.07 in1018.3 mb - 0.00 in0.0 mm 0.00 in0.0 mm
02:13 PM 94.5°F34.7°C 69.4°F20.8°C 44% 0.9 mph SW1.4 kmh SW 2.2 mph3.5 kmh 30.07 in1018.3 mb - 0.00 in0.0 mm 0.00 in0.0 mm
02:02 PM 94.3°F34.6°C 69.6°F20.9°C 45% 0.9 mph NNE1.4 kmh NNE 1.1 mph1.8 kmh 30.06 in1017.9 mb - 0.00 in0.0 mm 0.00 in0.0 mm
01:52 PM 93.9°F34.4°C 69.3°F20.7°C 45% 0.9 mph SW1.4 kmh SW 1.6 mph2.6 kmh 30.07 in1018.3 mb - 0.00 in0.0 mm 0.00 in0.0 mm
01:42 PM 92.1°F33.4°C 69.6°F20.9°C 48% 0.9 mph W1.4 kmh W 0.9 mph1.4 kmh 30.07 in1018.3 mb - 0.00 in0.0 mm 0.00 in0.0 mm
01:32 PM 91.9°F33.3°C 68.9°F20.5°C 47% 2.0 mph SW3.2 kmh SW 0.4 mph0.6 kmh 30.07 in1018.3 mb - 0.00 in0.0 mm 0.00 in0.0 mm
01:22 PM 92.5°F33.6°C 68.7°F20.4°C 46% 2.9 mph W4.7 kmh W 2.5 mph4.0 kmh 30.07 in1018.3 mb - 0.00 in0.0 mm 0.00 in0.0 mm
01:11 PM 93.4°F34.1°C 68.7°F20.4°C 44% 2.7 mph W4.3 kmh W 1.6 mph2.6 kmh 30.07 in1018.3 mb - 0.00 in0.0 mm 0.00 in0.0 mm
01:01 PM 93.7°F34.3°C 68.7°F20.4°C 44% 2.9 mph SW4.7 kmh SW 3.1 mph5.0 kmh 30.08 in1018.6 mb - 0.00 in0.0 mm 0.00 in0.0 mm
12:50 PM 93.7°F34.3°C 68.5°F20.3°C 44% 3.4 mph SW5.5 kmh SW 3.4 mph5.5 kmh 30.07 in1018.3 mb - 0.00 in0.0 mm 0.00 in0.0 mm
12:40 PM 94.5°F34.7°C 69.6°F20.9°C 44% 2.9 mph SW4.7 kmh SW 3.4 mph5.5 kmh 30.07 in1018.3 mb - 0.00 in0.0 mm 0.00 in0.0 mm
12:30 PM 94.3°F34.6°C 69.6°F20.9°C 45% 2.9 mph SW4.7 kmh SW 3.4 mph5.5 kmh 30.07 in1018.3 mb - 0.00 in0.0 mm 0.00 in0.0 mm
12:20 PM 94.1°F34.5°C 69.6°F20.9°C 45% 2.9 mph SSW4.7 kmh SSW 3.8 mph6.1 kmh 30.07 in1018.3 mb - 0.00 in0.0 mm 0.00 in0.0 mm
12:10 PM 93.6°F34.2°C 70.5°F21.4°C 47% 4.0 mph SW6.4 kmh SW 3.4 mph5.5 kmh 30.07 in1018.3 mb - 0.00 in0.0 mm 0.00 in0.0 mm
11:59 AM 94.5°F34.7°C 70.5°F21.4°C 46% 2.9 mph SW4.7 kmh SW 3.6 mph5.8 kmh 30.07 in1018.3 mb - 0.00 in0.0 mm 0.00 in0.0 mm
11:49 AM 94.5°F34.7°C 71.2°F21.8°C 47% 2.0 mph WNW3.2 kmh WNW 2.7 mph4.3 kmh 30.06 in1017.9 mb - 0.00 in0.0 mm 0.00 in0.0 mm
11:38 AM 93.7°F34.3°C 70.3°F21.3°C 46% 2.9 mph WSW4.7 kmh WSW 2.7 mph4.3 kmh 30.06 in1017.9 mb - 0.00 in0.0 mm 0.00 in0.0 mm
11:28 AM 94.1°F34.5°C 70.0°F21.1°C 45% 2.9 mph SW4.7 kmh SW 2.2 mph3.5 kmh 30.06 in1017.9 mb - 0.00 in0.0 mm 0.00 in0.0 mm
11:17 AM 93.9°F34.4°C 70.9°F21.6°C 47% 2.7 mph WNW4.3 kmh WNW 2.5 mph4.0 kmh 30.06 in1017.9 mb - 0.00 in0.0 mm 0.00 in0.0 mm
11:07 AM 93.7°F34.3°C 70.2°F21.2°C 46% 2.9 mph SW4.7 kmh SW 2.2 mph3.5 kmh 30.06 in1017.9 mb - 0.00 in0.0 mm 0.00 in0.0 mm
10:56 AM 93.6°F34.2°C 71.4°F21.9°C 48% 2.0 mph SSW3.2 kmh SSW 2.0 mph3.2 kmh 30.05 in1017.6 mb - 0.00 in0.0 mm 0.00 in0.0 mm
10:46 AM 93.0°F33.9°C 70.9°F21.6°C 48% 2.0 mph NNW3.2 kmh NNW 1.8 mph2.9 kmh 30.05 in1017.6 mb - 0.00 in0.0 mm 0.00 in0.0 mm
10:35 AM 92.8°F33.8°C 71.4°F21.9°C 50% 1.6 mph WNW2.6 kmh WNW 3.6 mph5.8 kmh 30.05 in1017.6 mb - 0.00 in0.0 mm 0.00 in0.0 mm
10:25 AM 91.9°F33.3°C 70.7°F21.5°C 50% 2.0 mph SW3.2 kmh SW 2.0 mph3.2 kmh 30.05 in1017.6 mb - 0.00 in0.0 mm 0.00 in0.0 mm
10:15 AM 91.2°F32.9°C 70.9°F21.6°C 51% 2.0 mph SW3.2 kmh SW 2.7 mph4.3 kmh 30.05 in1017.6 mb - 0.00 in0.0 mm 0.00 in0.0 mm
10:04 AM 90.9°F32.7°C 71.1°F21.7°C 52% 2.9 mph WSW4.7 kmh WSW 2.5 mph4.0 kmh 30.04 in1017.3 mb - 0.00 in0.0 mm 0.00 in0.0 mm
09:54 AM 90.1°F32.3°C 71.2°F21.8°C 54% 2.9 mph WSW4.7 kmh WSW 2.5 mph4.0 kmh 30.04 in1017.3 mb - 0.00 in0.0 mm 0.00 in0.0 mm
09:44 AM 90.0°F32.2°C 70.5°F21.4°C 53% 3.1 mph SW5.0 kmh SW 3.4 mph5.5 kmh 30.04 in1017.3 mb - 0.00 in0.0 mm 0.00 in0.0 mm
09:33 AM 90.3°F32.4°C 71.2°F21.8°C 53% 2.0 mph SW3.2 kmh SW 2.0 mph3.2 kmh 30.04 in1017.3 mb - 0.00 in0.0 mm 0.00 in0.0 mm
09:23 AM 89.4°F31.9°C 71.1°F21.7°C 55% 2.9 mph SW4.7 kmh SW 2.7 mph4.3 kmh 30.04 in1017.3 mb - 0.00 in0.0 mm 0.00 in0.0 mm
09:12 AM 88.2°F31.2°C 70.7°F21.5°C 56% 2.0 mph SW3.2 kmh SW 2.9 mph4.7 kmh 30.03 in1016.9 mb - 0.00 in0.0 mm 0.00 in0.0 mm
09:02 AM 87.4°F30.8°C 70.5°F21.4°C 57% 2.5 mph SW4.0 kmh SW 3.4 mph5.5 kmh 30.03 in1016.9 mb - 0.00 in0.0 mm 0.00 in0.0 mm
08:51 AM 86.7°F30.4°C 70.5°F21.4°C 58% 3.4 mph SW5.5 kmh SW 2.2 mph3.5 kmh 30.03 in1016.9 mb - 0.00 in0.0 mm 0.00 in0.0 mm
08:41 AM 86.0°F30.0°C 70.9°F21.6°C 60% 2.9 mph SW4.7 kmh SW 3.6 mph5.8 kmh 30.03 in1016.9 mb - 0.00 in0.0 mm 0.00 in0.0 mm
08:30 AM 85.1°F29.5°C 70.5°F21.4°C 62% 2.9 mph SW4.7 kmh SW 2.9 mph4.7 kmh 30.03 in1016.9 mb - 0.00 in0.0 mm 0.00 in0.0 mm
08:19 AM 84.0°F28.9°C 70.0°F21.1°C 63% 2.9 mph SSW4.7 kmh SSW 2.9 mph4.7 kmh 30.02 in1016.6 mb - 0.00 in0.0 mm 0.00 in0.0 mm
08:09 AM 83.1°F28.4°C 69.8°F21.0°C 64% 2.9 mph SW4.7 kmh SW 3.8 mph6.1 kmh 30.02 in1016.6 mb - 0.00 in0.0 mm 0.00 in0.0 mm
07:58 AM 82.2°F27.9°C 69.8°F21.0°C 66% 3.4 mph SW5.5 kmh SW 4.0 mph6.4 kmh 30.02 in1016.6 mb - 0.00 in0.0 mm 0.00 in0.0 mm
07:48 AM 81.5°F27.5°C 69.4°F20.8°C 67% 2.9 mph SW4.7 kmh SW 3.1 mph5.0 kmh 30.02 in1016.6 mb - 0.00 in0.0 mm 0.00 in0.0 mm
07:38 AM 80.8°F27.1°C 69.3°F20.7°C 68% 2.9 mph SW4.7 kmh SW 3.8 mph6.1 kmh 30.02 in1016.6 mb - 0.00 in0.0 mm 0.00 in0.0 mm
07:28 AM 80.1°F26.7°C 68.9°F20.5°C 69% 2.9 mph WSW4.7 kmh WSW 2.7 mph4.3 kmh 30.01 in1016.3 mb - 0.00 in0.0 mm 0.00 in0.0 mm
07:18 AM 79.5°F26.4°C 68.9°F20.5°C 70% 2.0 mph SW3.2 kmh SW 3.6 mph5.8 kmh 30.01 in1016.3 mb - 0.00 in0.0 mm 0.00 in0.0 mm
07:07 AM 79.3°F26.3°C 68.9°F20.5°C 70% 1.1 mph WSW1.8 kmh WSW 2.0 mph3.2 kmh 30.01 in1016.3 mb - 0.00 in0.0 mm 0.00 in0.0 mm
06:56 AM 79.0°F26.1°C 69.3°F20.7°C 72% 0.9 mph SW1.4 kmh SW 0.9 mph1.4 kmh 30.01 in1016.3 mb - 0.00 in0.0 mm 0.00 in0.0 mm
06:46 AM 78.6°F25.9°C 69.4°F20.8°C 73% 0.2 mph SSE0.3 kmh SSE 0.7 mph1.1 kmh 30.01 in1016.3 mb - 0.00 in0.0 mm 0.00 in0.0 mm
06:36 AM 78.3°F25.7°C 69.3°F20.7°C 74% 0.9 mph S1.4 kmh S 0.2 mph0.3 kmh 30.01 in1016.3 mb - 0.00 in0.0 mm 0.00 in0.0 mm
06:25 AM 77.7°F25.4°C 69.6°F20.9°C 76% Calm Calm 0.9 mph1.4 kmh 30.01 in1016.3 mb - 0.00 in0.0 mm 0.00 in0.0 mm
06:15 AM 77.4°F25.2°C 69.6°F20.9°C 77% Calm Calm 0.2 mph0.3 kmh 30.01 in1016.3 mb - 0.00 in0.0 mm 0.00 in0.0 mm
06:05 AM 77.2°F25.1°C 69.8°F21.0°C 78% 0.9 mph SSW1.4 kmh SSW 0.4 mph0.6 kmh 30.01 in1016.3 mb - 0.00 in0.0 mm 0.00 in0.0 mm
05:54 AM 77.0°F25.0°C 69.6°F20.9°C 78% 0.2 mph SSE0.3 kmh SSE 0.7 mph1.1 kmh 30.01 in1016.3 mb - 0.00 in0.0 mm 0.00 in0.0 mm
05:44 AM 76.8°F24.9°C 69.4°F20.8°C 78% Calm Calm 0.2 mph0.3 kmh 30.00 in1015.9 mb - 0.00 in0.0 mm 0.00 in0.0 mm
05:34 AM 76.8°F24.9°C 69.4°F20.8°C 78% Calm Calm 0.2 mph0.3 kmh 30.00 in1015.9 mb - 0.00 in0.0 mm 0.00 in0.0 mm
05:23 AM 76.8°F24.9°C 69.4°F20.8°C 78% Calm Calm 0.2 mph0.3 kmh 30.00 in1015.9 mb - 0.00 in0.0 mm 0.00 in0.0 mm
05:13 AM 76.6°F24.8°C 69.6°F20.9°C 79% Calm Calm 0.2 mph0.3 kmh 30.00 in1015.9 mb - 0.00 in0.0 mm 0.00 in0.0 mm
05:03 AM 76.6°F24.8°C 69.6°F20.9°C 79% Calm Calm 0.2 mph0.3 kmh 30.00 in1015.9 mb - 0.00 in0.0 mm 0.00 in0.0 mm
04:52 AM 76.6°F24.8°C 69.6°F20.9°C 79% Calm Calm 0.2 mph0.3 kmh 30.00 in1015.9 mb - 0.00 in0.0 mm 0.00 in0.0 mm
04:42 AM 76.5°F24.7°C 69.4°F20.8°C 79% Calm Calm -- 30.00 in1015.9 mb - 0.00 in0.0 mm 0.00 in0.0 mm
04:31 AM 76.5°F24.7°C 69.4°F20.8°C 79% Calm Calm -- 30.00 in1015.9 mb - 0.00 in0.0 mm 0.00 in0.0 mm
04:21 AM 76.6°F24.8°C 69.6°F20.9°C 79% Calm Calm 0.2 mph0.3 kmh 30.00 in1015.9 mb - 0.00 in0.0 mm 0.00 in0.0 mm
04:11 AM 76.6°F24.8°C 69.6°F20.9°C 79% 0.9 mph NE1.4 kmh NE 0.2 mph0.3 kmh 30.00 in1015.9 mb - 0.00 in0.0 mm 0.00 in0.0 mm
04:01 AM 76.6°F24.8°C 69.6°F20.9°C 79% Calm Calm 0.2 mph0.3 kmh 30.00 in1015.9 mb - 0.00 in0.0 mm 0.00 in0.0 mm
03:50 AM 76.8°F24.9°C 69.4°F20.8°C 78% Calm Calm 0.2 mph0.3 kmh 30.00 in1015.9 mb - 0.00 in0.0 mm 0.00 in0.0 mm
03:40 AM 77.2°F25.1°C 69.4°F20.8°C 77% Calm Calm -- 30.01 in1016.3 mb - 0.00 in0.0 mm 0.00 in0.0 mm
03:29 AM 77.4°F25.2°C 69.6°F20.9°C 77% Calm Calm -- 30.01 in1016.3 mb - 0.00 in0.0 mm 0.00 in0.0 mm
03:19 AM 77.5°F25.3°C 69.8°F21.0°C 77% Calm Calm -- 30.01 in1016.3 mb - 0.00 in0.0 mm 0.00 in0.0 mm
03:08 AM 77.5°F25.3°C 69.8°F21.0°C 77% 0.2 mph NE0.3 kmh NE 0.7 mph1.1 kmh 30.01 in1016.3 mb - 0.00 in0.0 mm 0.00 in0.0 mm
02:58 AM 77.7°F25.4°C 69.6°F20.9°C 76% Calm Calm 0.4 mph0.6 kmh 30.02 in1016.6 mb - 0.00 in0.0 mm 0.00 in0.0 mm
02:47 AM 78.1°F25.6°C 70.0°F21.1°C 76% Calm Calm -- 30.02 in1016.6 mb - 0.00 in0.0 mm 0.00 in0.0 mm
02:37 AM 78.1°F25.6°C 69.6°F20.9°C 75% 0.9 mph NNE1.4 kmh NNE 0.2 mph0.3 kmh 30.02 in1016.6 mb - 0.00 in0.0 mm 0.00 in0.0 mm
02:27 AM 78.3°F25.7°C 69.6°F20.9°C 75% 0.9 mph NNE1.4 kmh NNE 0.7 mph1.1 kmh 30.03 in1016.9 mb - 0.00 in0.0 mm 0.00 in0.0 mm
02:16 AM 78.3°F25.7°C 69.6°F20.9°C 75% 0.2 mph ENE0.3 kmh ENE 1.3 mph2.1 kmh 30.03 in1016.9 mb - 0.00 in0.0 mm 0.00 in0.0 mm
02:06 AM 78.3°F25.7°C 69.6°F20.9°C 75% 1.3 mph NE2.1 kmh NE 0.2 mph0.3 kmh 30.04 in1017.3 mb - 0.00 in0.0 mm 0.00 in0.0 mm
01:55 AM 78.1°F25.6°C 69.4°F20.8°C 75% 0.9 mph ENE1.4 kmh ENE 2.2 mph3.5 kmh 30.04 in1017.3 mb - 0.00 in0.0 mm 0.00 in0.0 mm
01:45 AM 78.1°F25.6°C 69.4°F20.8°C 75% 0.2 mph ENE0.3 kmh ENE 0.7 mph1.1 kmh 30.04 in1017.3 mb - 0.00 in0.0 mm 0.00 in0.0 mm
01:35 AM 78.3°F25.7°C 69.6°F20.9°C 75% Calm Calm -- 30.04 in1017.3 mb - 0.00 in0.0 mm 0.00 in0.0 mm
01:25 AM 78.4°F25.8°C 69.4°F20.8°C 74% Calm Calm 0.2 mph0.3 kmh 30.05 in1017.6 mb - 0.00 in0.0 mm 0.00 in0.0 mm
01:14 AM 78.6°F25.9°C 69.6°F20.9°C 74% 0.9 mph NE1.4 kmh NE 0.2 mph0.3 kmh 30.05 in1017.6 mb - 0.00 in0.0 mm 0.00 in0.0 mm
01:04 AM 78.6°F25.9°C 69.3°F20.7°C 73% Calm Calm -- 30.06 in1017.9 mb - 0.00 in0.0 mm 0.00 in0.0 mm
12:53 AM 79.0°F26.1°C 69.6°F20.9°C 73% 0.9 mph NE1.4 kmh NE -- 30.06 in1017.9 mb - 0.00 in0.0 mm 0.00 in0.0 mm
12:43 AM 79.2°F26.2°C 69.8°F21.0°C 73% 0.2 mph E0.3 kmh E 1.1 mph1.8 kmh 30.06 in1017.9 mb - 0.00 in0.0 mm 0.00 in0.0 mm
12:33 AM 79.2°F26.2°C 69.3°F20.7°C 72% Calm Calm 0.2 mph0.3 kmh 30.07 in1018.3 mb - 0.00 in0.0 mm 0.00 in0.0 mm
12:22 AM 79.5°F26.4°C 69.6°F20.9°C 72% 0.9 mph ENE1.4 kmh ENE 0.9 mph1.4 kmh 30.08 in1018.6 mb - 0.00 in0.0 mm 0.00 in0.0 mm
12:12 AM 79.5°F26.4°C 69.3°F20.7°C 71% Calm Calm 0.4 mph0.6 kmh 30.08 in1018.6 mb - 0.00 in0.0 mm 0.00 in0.0 mm
12:01 AM 79.9°F26.6°C 69.6°F20.9°C 71% 0.9 mph NE1.4 kmh NE 0.2 mph0.3 kmh 30.08 in1018.6 mb - 0.00 in0.0 mm 0.00 in0.0 mm